sensor_id;sensor_type;location;lat;lon;timestamp;temperature;humidity
5192;DHT22;2615;44.524;11.284;2023-11-22T00:02:09;11.10;74.20
5192;DHT22;2615;44.524;11.284;2023-11-22T00:04:37;11.10;74.20
5192;DHT22;2615;44.524;11.284;2023-11-22T00:07:05;11.10;74.20
5192;DHT22;2615;44.524;11.284;2023-11-22T00:09:33;11.10;74.20
5192;DHT22;2615;44.524;11.284;2023-11-22T00:12:02;11.10;74.20
5192;DHT22;2615;44.524;11.284;2023-11-22T00:14:32;11.10;74.20
5192;DHT22;2615;44.524;11.284;2023-11-22T00:17:02;11.10;74.20
5192;DHT22;2615;44.524;11.284;2023-11-22T00:19:31;11.10;74.20
5192;DHT22;2615;44.524;11.284;2023-11-22T00:21:59;11.10;74.20
5192;DHT22;2615;44.524;11.284;2023-11-22T00:24:29;11.10;74.20
5192;DHT22;2615;44.524;11.284;2023-11-22T00:26:57;11.10;74.20
5192;DHT22;2615;44.524;11.284;2023-11-22T00:29:26;11.00;74.10
5192;DHT22;2615;44.524;11.284;2023-11-22T00:31:55;11.00;74.10
5192;DHT22;2615;44.524;11.284;2023-11-22T00:34:24;11.00;74.00
5192;DHT22;2615;44.524;11.284;2023-11-22T00:36:52;11.00;74.10
5192;DHT22;2615;44.524;11.284;2023-11-22T00:39:20;11.00;74.10
5192;DHT22;2615;44.524;11.284;2023-11-22T00:41:49;11.00;74.10
5192;DHT22;2615;44.524;11.284;2023-11-22T00:44:17;11.00;74.10
5192;DHT22;2615;44.524;11.284;2023-11-22T00:46:45;11.00;74.10
5192;DHT22;2615;44.524;11.284;2023-11-22T00:49:15;11.00;74.10
5192;DHT22;2615;44.524;11.284;2023-11-22T00:51:43;10.90;74.10
5192;DHT22;2615;44.524;11.284;2023-11-22T00:54:12;11.00;74.10
5192;DHT22;2615;44.524;11.284;2023-11-22T00:56:40;10.90;74.00
5192;DHT22;2615;44.524;11.284;2023-11-22T00:59:08;10.90;74.00
5192;DHT22;2615;44.524;11.284;2023-11-22T01:01:36;10.90;74.00
5192;DHT22;2615;44.524;11.284;2023-11-22T01:04:04;10.90;74.00
5192;DHT22;2615;44.524;11.284;2023-11-22T01:06:35;10.90;74.00
5192;DHT22;2615;44.524;11.284;2023-11-22T01:09:03;10.90;74.00
5192;DHT22;2615;44.524;11.284;2023-11-22T01:11:35;10.90;74.00
5192;DHT22;2615;44.524;11.284;2023-11-22T01:14:04;10.80;73.90
5192;DHT22;2615;44.524;11.284;2023-11-22T01:16:33;10.90;74.00
5192;DHT22;2615;44.524;11.284;2023-11-22T01:19:03;10.90;74.00
5192;DHT22;2615;44.524;11.284;2023-11-22T01:21:32;10.90;73.90
5192;DHT22;2615;44.524;11.284;2023-11-22T01:24:01;10.90;73.90
5192;DHT22;2615;44.524;11.284;2023-11-22T01:26:29;10.90;73.90
5192;DHT22;2615;44.524;11.284;2023-11-22T01:28:57;10.90;73.90
5192;DHT22;2615;44.524;11.284;2023-11-22T01:31:27;10.80;73.80
5192;DHT22;2615;44.524;11.284;2023-11-22T01:33:55;10.90;74.00
5192;DHT22;2615;44.524;11.284;2023-11-22T01:36:23;10.80;73.80
5192;DHT22;2615;44.524;11.284;2023-11-22T01:38:52;10.90;73.90
5192;DHT22;2615;44.524;11.284;2023-11-22T01:41:22;10.80;73.80
5192;DHT22;2615;44.524;11.284;2023-11-22T01:43:51;10.80;73.80
5192;DHT22;2615;44.524;11.284;2023-11-22T01:46:22;10.80;73.80
5192;DHT22;2615;44.524;11.284;2023-11-22T01:48:54;10.80;73.80
5192;DHT22;2615;44.524;11.284;2023-11-22T01:51:22;10.80;73.70
5192;DHT22;2615;44.524;11.284;2023-11-22T01:53:54;10.80;73.70
5192;DHT22;2615;44.524;11.284;2023-11-22T01:56:26;10.80;73.70
5192;DHT22;2615;44.524;11.284;2023-11-22T01:58:55;10.80;73.70
5192;DHT22;2615;44.524;11.284;2023-11-22T02:01:25;10.80;73.60
5192;DHT22;2615;44.524;11.284;2023-11-22T02:03:53;10.80;73.70
5192;DHT22;2615;44.524;11.284;2023-11-22T02:06:22;10.80;73.60
5192;DHT22;2615;44.524;11.284;2023-11-22T02:08:51;10.80;73.60
5192;DHT22;2615;44.524;11.284;2023-11-22T02:11:19;10.80;73.60
5192;DHT22;2615;44.524;11.284;2023-11-22T02:13:50;10.80;73.70
5192;DHT22;2615;44.524;11.284;2023-11-22T02:16:19;10.80;73.60
5192;DHT22;2615;44.524;11.284;2023-11-22T02:18:48;10.70;73.40
5192;DHT22;2615;44.524;11.284;2023-11-22T02:21:16;10.70;73.50
5192;DHT22;2615;44.524;11.284;2023-11-22T02:23:46;10.70;73.50
5192;DHT22;2615;44.524;11.284;2023-11-22T02:26:14;10.70;73.50
5192;DHT22;2615;44.524;11.284;2023-11-22T02:28:44;10.70;73.50
5192;DHT22;2615;44.524;11.284;2023-11-22T02:31:12;10.70;73.50
5192;DHT22;2615;44.524;11.284;2023-11-22T02:33:41;10.70;73.50
5192;DHT22;2615;44.524;11.284;2023-11-22T02:36:10;10.70;73.50
5192;DHT22;2615;44.524;11.284;2023-11-22T02:38:39;10.70;73.50
5192;DHT22;2615;44.524;11.284;2023-11-22T02:41:10;10.70;73.40
5192;DHT22;2615;44.524;11.284;2023-11-22T02:43:38;10.70;73.40
5192;DHT22;2615;44.524;11.284;2023-11-22T02:46:06;10.70;73.40
5192;DHT22;2615;44.524;11.284;2023-11-22T02:48:35;10.70;73.40
5192;DHT22;2615;44.524;11.284;2023-11-22T02:51:04;10.60;73.30
5192;DHT22;2615;44.524;11.284;2023-11-22T02:53:33;10.60;73.30
5192;DHT22;2615;44.524;11.284;2023-11-22T02:56:01;10.60;73.30
5192;DHT22;2615;44.524;11.284;2023-11-22T02:58:31;10.60;73.30
5192;DHT22;2615;44.524;11.284;2023-11-22T03:00:59;10.60;73.40
5192;DHT22;2615;44.524;11.284;2023-11-22T03:03:28;10.60;73.30
5192;DHT22;2615;44.524;11.284;2023-11-22T03:05:56;10.60;73.30
5192;DHT22;2615;44.524;11.284;2023-11-22T03:08:24;10.50;73.10
5192;DHT22;2615;44.524;11.284;2023-11-22T03:10:52;10.50;73.20
5192;DHT22;2615;44.524;11.284;2023-11-22T03:13:20;10.50;73.20
5192;DHT22;2615;44.524;11.284;2023-11-22T03:15:51;10.50;73.20
5192;DHT22;2615;44.524;11.284;2023-11-22T03:18:19;10.50;73.20
5192;DHT22;2615;44.524;11.284;2023-11-22T03:20:48;10.40;73.00
5192;DHT22;2615;44.524;11.284;2023-11-22T03:23:21;10.40;73.00
5192;DHT22;2615;44.524;11.284;2023-11-22T03:25:49;10.40;73.00
5192;DHT22;2615;44.524;11.284;2023-11-22T03:28:18;10.40;73.00
5192;DHT22;2615;44.524;11.284;2023-11-22T03:30:46;10.40;73.00
5192;DHT22;2615;44.524;11.284;2023-11-22T03:33:16;10.40;73.00
5192;DHT22;2615;44.524;11.284;2023-11-22T03:35:44;10.40;73.00
5192;DHT22;2615;44.524;11.284;2023-11-22T03:38:12;10.40;73.00
5192;DHT22;2615;44.524;11.284;2023-11-22T03:40:40;10.40;73.00
5192;DHT22;2615;44.524;11.284;2023-11-22T03:43:08;10.40;73.00
5192;DHT22;2615;44.524;11.284;2023-11-22T03:45:37;10.40;73.00
5192;DHT22;2615;44.524;11.284;2023-11-22T03:48:05;10.40;73.00
5192;DHT22;2615;44.524;11.284;2023-11-22T03:50:35;10.40;72.90
5192;DHT22;2615;44.524;11.284;2023-11-22T03:53:03;10.40;73.00
5192;DHT22;2615;44.524;11.284;2023-11-22T03:55:31;10.40;72.90
5192;DHT22;2615;44.524;11.284;2023-11-22T03:57:59;10.40;72.90
5192;DHT22;2615;44.524;11.284;2023-11-22T04:00:28;10.40;72.90
5192;DHT22;2615;44.524;11.284;2023-11-22T04:02:56;10.30;72.80
5192;DHT22;2615;44.524;11.284;2023-11-22T04:05:26;10.30;72.80
5192;DHT22;2615;44.524;11.284;2023-11-22T04:07:57;10.30;72.80
5192;DHT22;2615;44.524;11.284;2023-11-22T04:10:25;10.30;72.80
5192;DHT22;2615;44.524;11.284;2023-11-22T04:12:53;10.30;72.80
5192;DHT22;2615;44.524;11.284;2023-11-22T04:15:21;10.30;72.80
5192;DHT22;2615;44.524;11.284;2023-11-22T04:17:50;10.30;72.80
5192;DHT22;2615;44.524;11.284;2023-11-22T04:20:21;10.20;72.70
5192;DHT22;2615;44.524;11.284;2023-11-22T04:22:49;10.20;72.70
5192;DHT22;2615;44.524;11.284;2023-11-22T04:25:19;10.20;72.80
5192;DHT22;2615;44.524;11.284;2023-11-22T04:27:47;10.20;72.80
5192;DHT22;2615;44.524;11.284;2023-11-22T04:30:15;10.20;72.80
5192;DHT22;2615;44.524;11.284;2023-11-22T04:32:44;10.20;72.90
5192;DHT22;2615;44.524;11.284;2023-11-22T04:35:13;10.10;72.80
5192;DHT22;2615;44.524;11.284;2023-11-22T04:37:42;10.20;72.80
5192;DHT22;2615;44.524;11.284;2023-11-22T04:40:11;10.10;72.80
5192;DHT22;2615;44.524;11.284;2023-11-22T04:42:43;10.10;72.70
5192;DHT22;2615;44.524;11.284;2023-11-22T04:45:11;10.10;72.70
5192;DHT22;2615;44.524;11.284;2023-11-22T04:47:39;10.10;72.80
5192;DHT22;2615;44.524;11.284;2023-11-22T04:50:08;10.10;72.80
5192;DHT22;2615;44.524;11.284;2023-11-22T04:52:37;10.10;72.80
5192;DHT22;2615;44.524;11.284;2023-11-22T04:55:06;10.10;72.80
5192;DHT22;2615;44.524;11.284;2023-11-22T04:57:35;10.10;72.70
5192;DHT22;2615;44.524;11.284;2023-11-22T05:00:06;10.00;72.60
5192;DHT22;2615;44.524;11.284;2023-11-22T05:02:34;10.00;72.70
5192;DHT22;2615;44.524;11.284;2023-11-22T05:05:03;10.00;72.80
5192;DHT22;2615;44.524;11.284;2023-11-22T05:07:31;10.00;72.80
5192;DHT22;2615;44.524;11.284;2023-11-22T05:10:00;10.00;72.80
5192;DHT22;2615;44.524;11.284;2023-11-22T05:12:29;10.00;72.80
5192;DHT22;2615;44.524;11.284;2023-11-22T05:14:57;10.00;72.70
5192;DHT22;2615;44.524;11.284;2023-11-22T05:17:27;9.90;74.30
5192;DHT22;2615;44.524;11.284;2023-11-22T05:19:55;9.90;73.80
5192;DHT22;2615;44.524;11.284;2023-11-22T05:22:24;9.90;73.80
5192;DHT22;2615;44.524;11.284;2023-11-22T05:24:52;9.80;73.70
5192;DHT22;2615;44.524;11.284;2023-11-22T05:27:20;9.80;73.70
5192;DHT22;2615;44.524;11.284;2023-11-22T05:29:48;9.80;73.80
5192;DHT22;2615;44.524;11.284;2023-11-22T05:32:21;9.80;73.80
5192;DHT22;2615;44.524;11.284;2023-11-22T05:34:51;9.80;73.80
5192;DHT22;2615;44.524;11.284;2023-11-22T05:37:19;9.80;73.70
5192;DHT22;2615;44.524;11.284;2023-11-22T05:39:49;9.80;73.70
5192;DHT22;2615;44.524;11.284;2023-11-22T05:42:18;9.70;73.60
5192;DHT22;2615;44.524;11.284;2023-11-22T05:44:46;9.70;73.60
5192;DHT22;2615;44.524;11.284;2023-11-22T05:47:14;9.70;73.60
5192;DHT22;2615;44.524;11.284;2023-11-22T05:49:45;9.70;73.70
5192;DHT22;2615;44.524;11.284;2023-11-22T05:52:15;9.70;73.70
5192;DHT22;2615;44.524;11.284;2023-11-22T05:54:43;9.60;73.60
5192;DHT22;2615;44.524;11.284;2023-11-22T05:57:11;9.60;73.60
5192;DHT22;2615;44.524;11.284;2023-11-22T05:59:39;9.60;73.60
5192;DHT22;2615;44.524;11.284;2023-11-22T06:02:07;9.60;73.70
5192;DHT22;2615;44.524;11.284;2023-11-22T06:04:35;9.60;73.70
5192;DHT22;2615;44.524;11.284;2023-11-22T06:07:07;9.60;73.70
5192;DHT22;2615;44.524;11.284;2023-11-22T06:09:37;9.50;73.60
5192;DHT22;2615;44.524;11.284;2023-11-22T06:12:06;9.50;73.70
5192;DHT22;2615;44.524;11.284;2023-11-22T06:14:34;9.50;73.70
5192;DHT22;2615;44.524;11.284;2023-11-22T06:17:02;9.50;73.70
5192;DHT22;2615;44.524;11.284;2023-11-22T06:19:31;9.50;73.70
5192;DHT22;2615;44.524;11.284;2023-11-22T06:21:59;9.50;73.70
5192;DHT22;2615;44.524;11.284;2023-11-22T06:24:28;9.50;73.70
5192;DHT22;2615;44.524;11.284;2023-11-22T06:26:58;9.50;73.70
5192;DHT22;2615;44.524;11.284;2023-11-22T06:29:26;9.50;73.70
5192;DHT22;2615;44.524;11.284;2023-11-22T06:31:54;9.50;73.70
5192;DHT22;2615;44.524;11.284;2023-11-22T06:34:22;9.50;73.70
5192;DHT22;2615;44.524;11.284;2023-11-22T06:36:50;9.50;73.70
5192;DHT22;2615;44.524;11.284;2023-11-22T06:39:19;9.50;73.60
5192;DHT22;2615;44.524;11.284;2023-11-22T06:41:49;9.50;73.70
5192;DHT22;2615;44.524;11.284;2023-11-22T06:44:19;9.50;73.60
5192;DHT22;2615;44.524;11.284;2023-11-22T06:46:47;9.50;73.50
5192;DHT22;2615;44.524;11.284;2023-11-22T06:49:15;9.50;73.60
5192;DHT22;2615;44.524;11.284;2023-11-22T06:51:44;9.60;73.70
5192;DHT22;2615;44.524;11.284;2023-11-22T06:54:12;9.60;73.70
5192;DHT22;2615;44.524;11.284;2023-11-22T06:56:40;9.60;73.70
5192;DHT22;2615;44.524;11.284;2023-11-22T06:59:08;9.60;73.70
5192;DHT22;2615;44.524;11.284;2023-11-22T07:01:37;9.70;73.80
5192;DHT22;2615;44.524;11.284;2023-11-22T07:04:06;9.70;73.70
5192;DHT22;2615;44.524;11.284;2023-11-22T07:06:34;9.70;73.50
5192;DHT22;2615;44.524;11.284;2023-11-22T07:09:04;9.70;73.50
5192;DHT22;2615;44.524;11.284;2023-11-22T07:11:32;9.80;73.70
5192;DHT22;2615;44.524;11.284;2023-11-22T07:14:00;9.80;73.60
5192;DHT22;2615;44.524;11.284;2023-11-22T07:16:30;9.90;73.70
5192;DHT22;2615;44.524;11.284;2023-11-22T07:19:00;9.90;73.60
5192;DHT22;2615;44.524;11.284;2023-11-22T07:21:29;9.90;73.60
5192;DHT22;2615;44.524;11.284;2023-11-22T07:23:58;10.00;72.50
5192;DHT22;2615;44.524;11.284;2023-11-22T07:26:26;10.00;72.50
5192;DHT22;2615;44.524;11.284;2023-11-22T07:28:55;10.00;71.90
5192;DHT22;2615;44.524;11.284;2023-11-22T07:31:23;10.10;72.50
5192;DHT22;2615;44.524;11.284;2023-11-22T07:33:51;10.10;72.40
5192;DHT22;2615;44.524;11.284;2023-11-22T07:36:22;10.10;72.40
5192;DHT22;2615;44.524;11.284;2023-11-22T07:38:51;10.20;72.40
5192;DHT22;2615;44.524;11.284;2023-11-22T07:41:20;10.30;72.50
5192;DHT22;2615;44.524;11.284;2023-11-22T07:43:49;10.30;72.40
5192;DHT22;2615;44.524;11.284;2023-11-22T07:46:17;10.40;72.40
5192;DHT22;2615;44.524;11.284;2023-11-22T07:48:46;10.40;72.30
5192;DHT22;2615;44.524;11.284;2023-11-22T07:51:16;10.50;72.40
5192;DHT22;2615;44.524;11.284;2023-11-22T07:53:46;10.60;72.50
5192;DHT22;2615;44.524;11.284;2023-11-22T07:56:16;10.60;72.40
5192;DHT22;2615;44.524;11.284;2023-11-22T07:58:45;10.70;72.40
5192;DHT22;2615;44.524;11.284;2023-11-22T08:01:13;10.80;72.40
5192;DHT22;2615;44.524;11.284;2023-11-22T08:03:42;10.80;72.40
5192;DHT22;2615;44.524;11.284;2023-11-22T08:06:15;10.80;72.20
5192;DHT22;2615;44.524;11.284;2023-11-22T08:08:45;10.90;72.30
5192;DHT22;2615;44.524;11.284;2023-11-22T08:11:14;10.90;72.20
5192;DHT22;2615;44.524;11.284;2023-11-22T08:13:42;11.00;72.20
5192;DHT22;2615;44.524;11.284;2023-11-22T08:16:12;11.00;72.10
5192;DHT22;2615;44.524;11.284;2023-11-22T08:18:41;11.10;72.10
5192;DHT22;2615;44.524;11.284;2023-11-22T08:21:11;11.10;72.00
5192;DHT22;2615;44.524;11.284;2023-11-22T08:23:39;11.20;72.00
5192;DHT22;2615;44.524;11.284;2023-11-22T08:26:09;11.20;71.90
5192;DHT22;2615;44.524;11.284;2023-11-22T08:28:39;11.30;71.90
5192;DHT22;2615;44.524;11.284;2023-11-22T08:31:07;11.30;71.80
5192;DHT22;2615;44.524;11.284;2023-11-22T08:33:36;11.40;71.90
5192;DHT22;2615;44.524;11.284;2023-11-22T08:36:06;11.40;71.80
5192;DHT22;2615;44.524;11.284;2023-11-22T08:38:35;11.50;71.70
5192;DHT22;2615;44.524;11.284;2023-11-22T08:41:03;11.50;71.60
5192;DHT22;2615;44.524;11.284;2023-11-22T08:43:34;11.60;71.60
5192;DHT22;2615;44.524;11.284;2023-11-22T08:46:02;11.70;71.60
5192;DHT22;2615;44.524;11.284;2023-11-22T08:48:41;11.80;71.50
5192;DHT22;2615;44.524;11.284;2023-11-22T08:51:10;11.80;71.30
5192;DHT22;2615;44.524;11.284;2023-11-22T08:53:39;11.90;71.20
5192;DHT22;2615;44.524;11.284;2023-11-22T08:56:07;11.90;71.00
5192;DHT22;2615;44.524;11.284;2023-11-22T08:58:39;12.00;71.00
5192;DHT22;2615;44.524;11.284;2023-11-22T09:01:07;12.00;70.80
5192;DHT22;2615;44.524;11.284;2023-11-22T09:03:35;12.00;70.70
5192;DHT22;2615;44.524;11.284;2023-11-22T09:06:05;12.10;70.80
5192;DHT22;2615;44.524;11.284;2023-11-22T09:08:34;12.10;70.60
5192;DHT22;2615;44.524;11.284;2023-11-22T09:11:03;12.10;70.50
5192;DHT22;2615;44.524;11.284;2023-11-22T09:13:33;12.10;70.30
5192;DHT22;2615;44.524;11.284;2023-11-22T09:16:04;12.10;70.20
5192;DHT22;2615;44.524;11.284;2023-11-22T09:18:33;12.20;70.30
5192;DHT22;2615;44.524;11.284;2023-11-22T09:21:01;12.20;70.10
5192;DHT22;2615;44.524;11.284;2023-11-22T09:23:29;12.20;70.10
5192;DHT22;2615;44.524;11.284;2023-11-22T09:25:58;12.20;70.00
5192;DHT22;2615;44.524;11.284;2023-11-22T09:28:27;12.20;70.00
5192;DHT22;2615;44.524;11.284;2023-11-22T09:30:55;12.30;70.00
5192;DHT22;2615;44.524;11.284;2023-11-22T09:33:29;12.30;70.00
5192;DHT22;2615;44.524;11.284;2023-11-22T09:35:58;12.30;69.80
5192;DHT22;2615;44.524;11.284;2023-11-22T09:38:26;12.30;69.70
5192;DHT22;2615;44.524;11.284;2023-11-22T09:40:54;12.30;69.70
5192;DHT22;2615;44.524;11.284;2023-11-22T09:43:23;12.30;69.60
5192;DHT22;2615;44.524;11.284;2023-11-22T09:45:52;12.30;69.50
5192;DHT22;2615;44.524;11.284;2023-11-22T09:48:25;12.30;69.40
5192;DHT22;2615;44.524;11.284;2023-11-22T09:51:04;12.30;69.40
5192;DHT22;2615;44.524;11.284;2023-11-22T09:53:33;12.40;69.50
5192;DHT22;2615;44.524;11.284;2023-11-22T09:56:03;12.40;69.40
5192;DHT22;2615;44.524;11.284;2023-11-22T09:58:34;12.40;69.40
5192;DHT22;2615;44.524;11.284;2023-11-22T10:01:03;12.40;69.30
5192;DHT22;2615;44.524;11.284;2023-11-22T10:03:32;12.50;69.40
5192;DHT22;2615;44.524;11.284;2023-11-22T10:06:02;12.50;69.40
5192;DHT22;2615;44.524;11.284;2023-11-22T10:08:31;12.60;69.30
5192;DHT22;2615;44.524;11.284;2023-11-22T10:11:00;12.70;69.30
5192;DHT22;2615;44.524;11.284;2023-11-22T10:13:28;12.70;69.20
5192;DHT22;2615;44.524;11.284;2023-11-22T10:16:08;12.80;69.10
5192;DHT22;2615;44.524;11.284;2023-11-22T10:18:40;12.80;69.00
5192;DHT22;2615;44.524;11.284;2023-11-22T10:21:21;12.80;69.50
5192;DHT22;2615;44.524;11.284;2023-11-22T10:23:49;12.80;69.00
5192;DHT22;2615;44.524;11.284;2023-11-22T10:26:19;12.80;69.00
5192;DHT22;2615;44.524;11.284;2023-11-22T10:28:50;12.90;69.10
5192;DHT22;2615;44.524;11.284;2023-11-22T10:31:19;13.00;69.10
5192;DHT22;2615;44.524;11.284;2023-11-22T10:33:48;13.20;69.20
5192;DHT22;2615;44.524;11.284;2023-11-22T10:36:17;13.40;69.10
5192;DHT22;2615;44.524;11.284;2023-11-22T10:38:48;13.60;68.90
5192;DHT22;2615;44.524;11.284;2023-11-22T10:41:20;13.70;68.70
5192;DHT22;2615;44.524;11.284;2023-11-22T10:43:52;13.80;68.40
5192;DHT22;2615;44.524;11.284;2023-11-22T10:46:21;13.90;68.20
5192;DHT22;2615;44.524;11.284;2023-11-22T10:48:54;13.90;68.00
5192;DHT22;2615;44.524;11.284;2023-11-22T10:51:26;13.90;67.70
5192;DHT22;2615;44.524;11.284;2023-11-22T10:54:00;13.90;67.60
5192;DHT22;2615;44.524;11.284;2023-11-22T10:56:36;13.80;67.50
5192;DHT22;2615;44.524;11.284;2023-11-22T10:59:10;13.80;67.50
5192;DHT22;2615;44.524;11.284;2023-11-22T11:01:44;13.80;67.50
5192;DHT22;2615;44.524;11.284;2023-11-22T11:04:24;13.80;67.40
5192;DHT22;2615;44.524;11.284;2023-11-22T11:06:54;13.90;67.40
5192;DHT22;2615;44.524;11.284;2023-11-22T11:09:25;13.90;67.30
5192;DHT22;2615;44.524;11.284;2023-11-22T11:11:57;13.90;67.10
5192;DHT22;2615;44.524;11.284;2023-11-22T11:14:26;14.00;67.10
5192;DHT22;2615;44.524;11.284;2023-11-22T11:16:55;14.00;66.90
5192;DHT22;2615;44.524;11.284;2023-11-22T11:19:25;14.10;66.80
5192;DHT22;2615;44.524;11.284;2023-11-22T11:21:54;14.20;66.80
5192;DHT22;2615;44.524;11.284;2023-11-22T11:24:25;14.20;66.70
5192;DHT22;2615;44.524;11.284;2023-11-22T11:26:53;14.30;66.70
5192;DHT22;2615;44.524;11.284;2023-11-22T11:29:31;14.40;66.60
5192;DHT22;2615;44.524;11.284;2023-11-22T11:32:01;14.50;66.40
5192;DHT22;2615;44.524;11.284;2023-11-22T11:34:30;14.60;66.40
5192;DHT22;2615;44.524;11.284;2023-11-22T11:36:59;14.70;66.30
5192;DHT22;2615;44.524;11.284;2023-11-22T11:39:29;14.80;66.10
5192;DHT22;2615;44.524;11.284;2023-11-22T11:42:08;15.00;66.10
5192;DHT22;2615;44.524;11.284;2023-11-22T11:44:52;15.20;65.90
5192;DHT22;2615;44.524;11.284;2023-11-22T11:47:30;15.30;65.70
5192;DHT22;2615;44.524;11.284;2023-11-22T11:49:59;15.50;65.70
5192;DHT22;2615;44.524;11.284;2023-11-22T11:52:27;15.70;65.50
5192;DHT22;2615;44.524;11.284;2023-11-22T11:54:59;16.00;65.40
5192;DHT22;2615;44.524;11.284;2023-11-22T11:57:31;16.30;65.30
5192;DHT22;2615;44.524;11.284;2023-11-22T11:59:59;16.80;65.30
5192;DHT22;2615;44.524;11.284;2023-11-22T12:02:29;17.40;65.50
5192;DHT22;2615;44.524;11.284;2023-11-22T12:04:57;18.20;65.40
5192;DHT22;2615;44.524;11.284;2023-11-22T12:07:26;18.90;64.80
5192;DHT22;2615;44.524;11.284;2023-11-22T12:09:54;19.60;64.10
5192;DHT22;2615;44.524;11.284;2023-11-22T12:12:25;20.20;63.40
5192;DHT22;2615;44.524;11.284;2023-11-22T12:14:55;20.80;62.60
5192;DHT22;2615;44.524;11.284;2023-11-22T12:17:25;21.30;61.80
5192;DHT22;2615;44.524;11.284;2023-11-22T12:20:09;21.70;60.30
5192;DHT22;2615;44.524;11.284;2023-11-22T12:22:38;21.70;59.00
5192;DHT22;2615;44.524;11.284;2023-11-22T12:25:08;21.60;58.70
5192;DHT22;2615;44.524;11.284;2023-11-22T12:27:40;21.20;58.20
5192;DHT22;2615;44.524;11.284;2023-11-22T12:30:09;20.80;57.80
5192;DHT22;2615;44.524;11.284;2023-11-22T12:32:39;20.40;57.70
5192;DHT22;2615;44.524;11.284;2023-11-22T12:35:09;20.00;57.80
5192;DHT22;2615;44.524;11.284;2023-11-22T12:37:38;19.80;57.90
5192;DHT22;2615;44.524;11.284;2023-11-22T12:40:09;19.90;58.10
5192;DHT22;2615;44.524;11.284;2023-11-22T12:42:50;20.30;58.40
5192;DHT22;2615;44.524;11.284;2023-11-22T12:45:21;20.80;58.20
5192;DHT22;2615;44.524;11.284;2023-11-22T12:47:51;21.40;58.40
5192;DHT22;2615;44.524;11.284;2023-11-22T12:50:35;22.20;58.20
5192;DHT22;2615;44.524;11.284;2023-11-22T12:53:10;22.70;56.90
5192;DHT22;2615;44.524;11.284;2023-11-22T12:55:41;23.10;56.60
5192;DHT22;2615;44.524;11.284;2023-11-22T12:58:12;23.10;55.80
5192;DHT22;2615;44.524;11.284;2023-11-22T13:00:41;23.10;55.40
5192;DHT22;2615;44.524;11.284;2023-11-22T13:03:09;22.80;54.90
5192;DHT22;2615;44.524;11.284;2023-11-22T13:05:38;22.50;54.60
5192;DHT22;2615;44.524;11.284;2023-11-22T13:08:07;22.00;54.50
5192;DHT22;2615;44.524;11.284;2023-11-22T13:10:37;21.50;54.30
5192;DHT22;2615;44.524;11.284;2023-11-22T13:13:05;21.10;54.50
5192;DHT22;2615;44.524;11.284;2023-11-22T13:15:37;20.60;54.40
5192;DHT22;2615;44.524;11.284;2023-11-22T13:18:07;20.30;54.50
5192;DHT22;2615;44.524;11.284;2023-11-22T13:20:35;19.90;54.60
5192;DHT22;2615;44.524;11.284;2023-11-22T13:23:05;19.60;54.70
5192;DHT22;2615;44.524;11.284;2023-11-22T13:25:34;19.40;54.80
5192;DHT22;2615;44.524;11.284;2023-11-22T13:28:02;19.10;54.80
5192;DHT22;2615;44.524;11.284;2023-11-22T13:30:32;18.90;54.90
5192;DHT22;2615;44.524;11.284;2023-11-22T13:33:01;18.70;54.90
5192;DHT22;2615;44.524;11.284;2023-11-22T13:35:30;18.50;55.00
5192;DHT22;2615;44.524;11.284;2023-11-22T13:37:59;18.30;55.00
5192;DHT22;2615;44.524;11.284;2023-11-22T13:40:29;18.10;55.00
5192;DHT22;2615;44.524;11.284;2023-11-22T13:42:58;17.90;54.90
5192;DHT22;2615;44.524;11.284;2023-11-22T13:45:26;17.80;54.80
5192;DHT22;2615;44.524;11.284;2023-11-22T13:47:56;17.60;54.80
5192;DHT22;2615;44.524;11.284;2023-11-22T13:50:32;17.50;54.90
5192;DHT22;2615;44.524;11.284;2023-11-22T13:53:01;17.40;55.00
5192;DHT22;2615;44.524;11.284;2023-11-22T13:55:31;17.30;54.90
5192;DHT22;2615;44.524;11.284;2023-11-22T13:57:59;17.20;54.80
5192;DHT22;2615;44.524;11.284;2023-11-22T14:00:29;17.10;54.80
5192;DHT22;2615;44.524;11.284;2023-11-22T14:03:03;17.00;54.70
5192;DHT22;2615;44.524;11.284;2023-11-22T14:05:36;16.90;54.50
5192;DHT22;2615;44.524;11.284;2023-11-22T14:08:06;16.80;54.50
5192;DHT22;2615;44.524;11.284;2023-11-22T14:10:34;16.70;54.40
5192;DHT22;2615;44.524;11.284;2023-11-22T14:13:02;16.70;54.60
5192;DHT22;2615;44.524;11.284;2023-11-22T14:15:32;16.60;54.50
5192;DHT22;2615;44.524;11.284;2023-11-22T14:18:00;16.50;54.40
5192;DHT22;2615;44.524;11.284;2023-11-22T14:20:28;16.40;54.40
5192;DHT22;2615;44.524;11.284;2023-11-22T14:22:58;16.30;54.40
5192;DHT22;2615;44.524;11.284;2023-11-22T14:25:26;16.20;54.50
5192;DHT22;2615;44.524;11.284;2023-11-22T14:27:56;16.00;54.50
5192;DHT22;2615;44.524;11.284;2023-11-22T14:30:25;15.90;54.50
5192;DHT22;2615;44.524;11.284;2023-11-22T14:32:56;15.80;54.50
5192;DHT22;2615;44.524;11.284;2023-11-22T14:35:25;15.80;54.60
5192;DHT22;2615;44.524;11.284;2023-11-22T14:37:54;15.80;54.80
5192;DHT22;2615;44.524;11.284;2023-11-22T14:40:27;15.70;54.80
5192;DHT22;2615;44.524;11.284;2023-11-22T14:42:57;15.60;54.90
5192;DHT22;2615;44.524;11.284;2023-11-22T14:45:25;15.60;54.90
5192;DHT22;2615;44.524;11.284;2023-11-22T14:47:54;15.50;54.90
5192;DHT22;2615;44.524;11.284;2023-11-22T14:50:24;15.50;54.90
5192;DHT22;2615;44.524;11.284;2023-11-22T14:52:55;15.40;55.00
5192;DHT22;2615;44.524;11.284;2023-11-22T14:55:23;15.40;55.00
5192;DHT22;2615;44.524;11.284;2023-11-22T14:57:54;15.40;55.10
5192;DHT22;2615;44.524;11.284;2023-11-22T15:00:24;15.30;55.00
5192;DHT22;2615;44.524;11.284;2023-11-22T15:02:53;15.30;55.10
5192;DHT22;2615;44.524;11.284;2023-11-22T15:05:24;15.20;55.10
5192;DHT22;2615;44.524;11.284;2023-11-22T15:07:53;15.20;55.20
5192;DHT22;2615;44.524;11.284;2023-11-22T15:10:22;15.10;55.20
5192;DHT22;2615;44.524;11.284;2023-11-22T15:12:53;15.10;55.30
5192;DHT22;2615;44.524;11.284;2023-11-22T15:15:22;15.00;55.30
5192;DHT22;2615;44.524;11.284;2023-11-22T15:17:53;15.00;55.40
5192;DHT22;2615;44.524;11.284;2023-11-22T15:20:22;14.90;55.40
5192;DHT22;2615;44.524;11.284;2023-11-22T15:22:50;14.80;55.50
5192;DHT22;2615;44.524;11.284;2023-11-22T15:25:18;14.80;55.60
5192;DHT22;2615;44.524;11.284;2023-11-22T15:27:47;14.70;55.60
5192;DHT22;2615;44.524;11.284;2023-11-22T15:30:16;14.70;55.60
5192;DHT22;2615;44.524;11.284;2023-11-22T15:32:46;14.60;55.70
5192;DHT22;2615;44.524;11.284;2023-11-22T15:35:15;14.50;55.70
5192;DHT22;2615;44.524;11.284;2023-11-22T15:37:44;14.50;55.90
5192;DHT22;2615;44.524;11.284;2023-11-22T15:40:12;14.40;56.00
5192;DHT22;2615;44.524;11.284;2023-11-22T15:42:44;14.30;56.10
5192;DHT22;2615;44.524;11.284;2023-11-22T15:45:12;14.20;56.20
5192;DHT22;2615;44.524;11.284;2023-11-22T15:47:42;14.10;56.30
5192;DHT22;2615;44.524;11.284;2023-11-22T15:50:12;14.10;56.50
5192;DHT22;2615;44.524;11.284;2023-11-22T15:52:41;14.00;56.40
5192;DHT22;2615;44.524;11.284;2023-11-22T15:55:09;13.90;56.60
5192;DHT22;2615;44.524;11.284;2023-11-22T15:57:37;13.80;56.70
5192;DHT22;2615;44.524;11.284;2023-11-22T16:00:06;13.80;56.80
5192;DHT22;2615;44.524;11.284;2023-11-22T16:02:37;13.70;56.90